Time;durP1;ratioP1;P1;durP2;ratioP2;P2;SDS_P1;SDS_P2;PMS_P1;PMS_P2;Temp;Humidity;BMP_temperature;BMP_pressure;BME280_temperature;BME280_humidity;BME280_pressure;Samples;Min_cycle;Max_cycle;Signal;HPM_P1;HPM_P2
2020/04/10 00:02:39;;;;;;;3.70;3.40;;;;;;;19.23;36.73;101209.25;;;;-52
2020/04/10 00:06:39;;;;;;;3.79;3.49;;;;;;;19.23;36.71;101212.83;;;;-52
2020/04/10 00:10:39;;;;;;;4.05;3.52;;;;;;;19.21;36.68;101210.14;;;;-51
2020/04/10 00:13:39;;;;;;;3.69;3.39;;;;;;;19.22;36.70;101212.53;;;;-52
2020/04/10 00:16:39;;;;;;;3.95;3.65;;;;;;;19.21;36.71;101210.97;;;;-52
2020/04/10 00:19:40;;;;;;;3.80;3.50;;;;;;;19.20;36.69;101208.25;;;;-52
2020/04/10 00:22:39;;;;;;;3.73;3.43;;;;;;;19.20;36.74;101211.47;;;;-52
2020/04/10 00:25:39;;;;;;;3.81;3.51;;;;;;;19.19;36.76;101209.58;;;;-52
2020/04/10 00:28:39;;;;;;;3.85;3.55;;;;;;;19.17;36.76;101207.50;;;;-52
2020/04/10 00:31:39;;;;;;;3.75;3.42;;;;;;;19.17;36.73;101210.23;;;;-52
2020/04/10 00:34:39;;;;;;;3.72;3.42;;;;;;;19.17;36.73;101207.02;;;;-52
2020/04/10 00:39:40;;;;;;;4.00;3.70;;;;;;;19.16;36.70;101214.87;;;;-52
2020/04/10 00:44:39;;;;;;;3.83;3.45;;;;;;;19.14;36.74;101214.53;;;;-52
2020/04/10 00:47:39;;;;;;;3.85;3.55;;;;;;;19.13;36.73;101215.87;;;;-52
2020/04/10 00:50:39;;;;;;;3.71;3.41;;;;;;;19.12;36.74;101210.75;;;;-52
2020/04/10 00:53:40;;;;;;;3.95;3.65;;;;;;;19.13;36.73;101220.64;;;;-52
2020/04/10 00:56:40;;;;;;;3.79;3.49;;;;;;;19.12;36.76;101216.94;;;;-52
2020/04/10 00:59:40;;;;;;;3.84;3.54;;;;;;;19.11;36.75;101221.02;;;;-52
2020/04/10 01:04:39;;;;;;;4.12;3.57;;;;;;;19.11;36.78;101220.56;;;;-52
2020/04/10 01:07:39;;;;;;;3.77;3.47;;;;;;;19.09;36.73;101219.39;;;;-52
2020/04/10 01:11:39;;;;;;;3.96;3.66;;;;;;;19.09;36.74;101221.95;;;;-52
2020/04/10 01:14:39;;;;;;;3.66;3.36;;;;;;;19.09;36.74;101228.05;;;;-52
2020/04/10 01:17:40;;;;;;;3.96;3.65;;;;;;;19.08;36.74;101228.76;;;;-52
2020/04/10 01:20:39;;;;;;;4.68;3.72;;;;;;;19.07;36.73;101229.05;;;;-52
2020/04/10 01:25:39;;;;;;;3.99;3.69;;;;;;;19.07;36.75;101231.12;;;;-52
2020/04/10 01:28:39;;;;;;;3.80;3.50;;;;;;;19.07;36.74;101235.30;;;;-52
2020/04/10 01:31:40;;;;;;;3.95;3.65;;;;;;;19.05;36.74;101227.08;;;;-52
2020/04/10 01:34:39;;;;;;;4.00;3.70;;;;;;;19.04;36.74;101229.14;;;;-51
2020/04/10 01:37:39;;;;;;;3.77;3.47;;;;;;;19.04;36.75;101233.05;;;;-52
2020/04/10 01:40:39;;;;;;;3.73;3.43;;;;;;;19.04;36.74;101234.56;;;;-52
2020/04/10 01:43:39;;;;;;;4.15;3.85;;;;;;;19.04;36.75;101230.82;;;;-52
2020/04/10 01:46:39;;;;;;;4.51;3.91;;;;;;;19.03;36.76;101234.78;;;;-52
2020/04/10 01:49:39;;;;;;;3.93;3.53;;;;;;;19.03;36.76;101232.44;;;;-52
2020/04/10 01:52:40;;;;;;;3.72;3.42;;;;;;;19.02;36.76;101236.55;;;;-52
2020/04/10 01:55:40;;;;;;;3.84;3.48;;;;;;;19.02;36.77;101238.78;;;;-52
2020/04/10 01:58:39;;;;;;;3.90;3.52;;;;;;;19.02;36.77;101241.41;;;;-51
2020/04/10 02:01:39;;;;;;;4.11;3.71;;;;;;;19.01;36.74;101238.39;;;;-52
2020/04/10 02:05:39;;;;;;;4.07;3.69;;;;;;;19.00;36.75;101235.48;;;;-52
2020/04/10 02:09:41;;;;;;;4.05;3.75;;;;;;;18.99;36.77;101240.07;;;;-53
2020/04/10 02:13:40;;;;;;;3.85;3.55;;;;;;;18.99;36.77;101237.61;;;;-52
2020/04/10 02:16:39;;;;;;;4.00;3.70;;;;;;;18.98;36.78;101236.16;;;;-52
2020/04/10 02:19:39;;;;;;;4.25;3.91;;;;;;;18.98;36.77;101233.80;;;;-52
2020/04/10 02:22:39;;;;;;;4.07;3.77;;;;;;;18.97;36.78;101233.23;;;;-52
2020/04/10 02:25:39;;;;;;;4.29;3.90;;;;;;;18.96;36.76;101231.02;;;;-52
2020/04/10 02:28:40;;;;;;;4.45;4.05;;;;;;;18.96;36.78;101232.75;;;;-51
2020/04/10 02:31:39;;;;;;;4.17;3.87;;;;;;;18.96;36.76;101231.67;;;;-52
2020/04/10 02:34:39;;;;;;;4.19;3.79;;;;;;;18.96;36.75;101232.91;;;;-52
2020/04/10 02:37:39;;;;;;;4.11;3.81;;;;;;;18.95;36.77;101232.73;;;;-52
2020/04/10 02:40:39;;;;;;;3.96;3.66;;;;;;;18.95;36.79;101232.45;;;;-52
2020/04/10 02:43:39;;;;;;;3.97;3.67;;;;;;;18.94;36.77;101235.80;;;;-51
2020/04/10 02:46:39;;;;;;;4.18;3.82;;;;;;;18.93;36.79;101235.70;;;;-52
2020/04/10 02:49:39;;;;;;;4.35;3.80;;;;;;;18.93;36.78;101237.70;;;;-53
2020/04/10 02:52:40;;;;;;;4.00;3.70;;;;;;;18.93;36.78;101244.95;;;;-52
2020/04/10 02:55:39;;;;;;;4.13;3.83;;;;;;;18.93;36.78;101247.80;;;;-52
2020/04/10 02:58:39;;;;;;;4.06;3.76;;;;;;;18.93;36.79;101243.61;;;;-52
2020/04/10 03:01:39;;;;;;;4.27;3.93;;;;;;;18.92;36.79;101247.78;;;;-51
2020/04/10 03:04:39;;;;;;;4.19;3.87;;;;;;;18.91;36.77;101246.05;;;;-52
2020/04/10 03:07:39;;;;;;;4.11;3.81;;;;;;;18.91;36.78;101242.99;;;;-52
2020/04/10 03:10:39;;;;;;;4.34;3.79;;;;;;;18.90;36.79;101241.98;;;;-52
2020/04/10 03:13:40;;;;;;;4.34;4.04;;;;;;;18.90;36.79;101249.73;;;;-52
2020/04/10 03:16:39;;;;;;;4.05;3.75;;;;;;;18.89;36.78;101244.59;;;;-52
2020/04/10 03:19:39;;;;;;;4.13;3.83;;;;;;;18.90;36.77;101246.95;;;;-52
2020/04/10 03:22:39;;;;;;;4.21;3.89;;;;;;;18.89;36.78;101243.76;;;;-52
2020/04/10 03:25:39;;;;;;;4.20;3.80;;;;;;;18.88;36.78;101248.13;;;;-51
2020/04/10 03:28:39;;;;;;;4.27;3.97;;;;;;;18.88;36.80;101242.42;;;;-52
2020/04/10 03:31:39;;;;;;;4.22;3.82;;;;;;;18.88;36.77;101252.02;;;;-52
2020/04/10 03:34:39;;;;;;;4.05;3.75;;;;;;;18.87;36.80;101248.94;;;;-51
2020/04/10 03:37:39;;;;;;;4.21;3.90;;;;;;;18.87;36.75;101245.77;;;;-52
2020/04/10 03:40:39;;;;;;;4.17;3.87;;;;;;;18.88;36.74;101247.88;;;;-52
2020/04/10 03:43:39;;;;;;;4.27;3.91;;;;;;;18.88;36.70;101249.30;;;;-52
2020/04/10 03:46:39;;;;;;;4.05;3.75;;;;;;;18.91;36.68;101250.02;;;;-51
2020/04/10 03:49:39;;;;;;;4.12;3.82;;;;;;;18.91;36.69;101247.05;;;;-52
2020/04/10 03:52:39;;;;;;;4.16;3.86;;;;;;;18.93;36.71;101252.60;;;;-51
2020/04/10 03:55:39;;;;;;;3.95;3.65;;;;;;;18.95;36.66;101245.34;;;;-52
2020/04/10 03:58:39;;;;;;;3.95;3.65;;;;;;;18.99;36.69;101250.17;;;;-52
2020/04/10 04:01:39;;;;;;;4.10;3.80;;;;;;;19.03;36.68;101255.42;;;;-52
2020/04/10 04:05:39;;;;;;;4.15;3.85;;;;;;;19.07;36.74;101258.28;;;;-52
2020/04/10 04:08:39;;;;;;;3.99;3.69;;;;;;;19.12;36.77;101258.97;;;;-52
2020/04/10 04:11:39;;;;;;;4.17;3.85;;;;;;;19.15;36.76;101266.34;;;;-52
2020/04/10 04:14:39;;;;;;;4.18;3.88;;;;;;;19.17;36.79;101263.05;;;;-52
2020/04/10 04:17:39;;;;;;;5.83;4.20;;;;;;;19.20;36.87;101262.00;;;;-52
2020/04/10 04:20:39;;;;;;;5.57;4.06;;;;;;;19.23;36.93;101262.73;;;;-52
2020/04/10 04:23:39;;;;;;;4.45;4.05;;;;;;;19.25;36.94;101260.62;;;;-52
2020/04/10 04:26:39;;;;;;;6.34;3.93;;;;;;;19.28;36.89;101266.38;;;;-51
2020/04/10 04:29:39;;;;;;;5.07;4.08;;;;;;;19.31;36.90;101271.91;;;;-51
2020/04/10 04:32:39;;;;;;;4.81;4.37;;;;;;;19.33;36.91;101272.09;;;;-52
2020/04/10 04:35:39;;;;;;;4.60;4.05;;;;;;;19.36;36.92;101272.54;;;;-52
2020/04/10 04:38:39;;;;;;;4.73;4.13;;;;;;;19.39;36.87;101275.28;;;;-52
2020/04/10 04:41:39;;;;;;;4.39;3.97;;;;;;;19.40;36.90;101278.75;;;;-51
2020/04/10 04:44:39;;;;;;;5.15;4.08;;;;;;;19.43;36.89;101281.59;;;;-51
2020/04/10 04:47:39;;;;;;;4.47;4.07;;;;;;;19.44;36.92;101280.95;;;;-51
2020/04/10 04:50:39;;;;;;;4.28;3.88;;;;;;;19.46;36.91;101283.67;;;;-51
2020/04/10 04:53:39;;;;;;;4.10;3.79;;;;;;;19.50;36.88;101288.81;;;;-51
2020/04/10 04:56:39;;;;;;;5.04;4.07;;;;;;;19.51;36.86;101293.06;;;;-52
2020/04/10 04:59:39;;;;;;;4.47;4.07;;;;;;;19.53;36.84;101297.20;;;;-52
2020/04/10 05:02:39;;;;;;;4.35;3.83;;;;;;;19.54;36.85;101299.28;;;;-52
2020/04/10 05:05:40;;;;;;;4.73;4.22;;;;;;;19.56;36.84;101301.23;;;;-52
2020/04/10 05:08:39;;;;;;;4.82;4.05;;;;;;;19.58;36.79;101303.02;;;;-52
2020/04/10 05:11:39;;;;;;;4.41;3.94;;;;;;;19.60;36.79;101304.70;;;;-52
2020/04/10 05:14:39;;;;;;;4.55;4.15;;;;;;;19.61;36.81;101304.37;;;;-52
2020/04/10 05:17:39;;;;;;;4.61;3.91;;;;;;;19.62;36.79;101306.11;;;;-52
2020/04/10 05:20:39;;;;;;;4.19;3.79;;;;;;;19.65;36.76;101309.17;;;;-52
2020/04/10 05:23:39;;;;;;;4.42;4.02;;;;;;;19.66;36.76;101305.79;;;;-51
2020/04/10 05:26:39;;;;;;;4.49;4.09;;;;;;;19.68;36.75;101312.61;;;;-52
2020/04/10 05:29:39;;;;;;;4.32;3.92;;;;;;;19.71;36.72;101311.10;;;;-52
2020/04/10 05:32:39;;;;;;;4.19;3.78;;;;;;;19.71;36.75;101316.17;;;;-52
2020/04/10 05:35:39;;;;;;;4.27;3.85;;;;;;;19.74;36.76;101315.17;;;;-52
2020/04/10 05:38:39;;;;;;;4.21;3.86;;;;;;;19.76;36.77;101319.88;;;;-51
2020/04/10 05:41:39;;;;;;;4.29;3.89;;;;;;;19.79;36.73;101330.83;;;;-52
2020/04/10 05:44:39;;;;;;;4.16;3.83;;;;;;;19.79;36.73;101325.92;;;;-52
2020/04/10 05:47:39;;;;;;;4.32;3.92;;;;;;;19.81;36.69;101331.30;;;;-52
2020/04/10 05:50:39;;;;;;;4.53;4.13;;;;;;;19.84;36.71;101337.32;;;;-52
2020/04/10 05:53:39;;;;;;;5.05;3.95;;;;;;;19.85;36.68;101340.13;;;;-52
2020/04/10 05:56:39;;;;;;;4.60;3.71;;;;;;;19.85;36.67;101333.13;;;;-52
2020/04/10 05:59:39;;;;;;;4.10;3.75;;;;;;;19.87;36.67;101337.33;;;;-51
2020/04/10 06:02:39;;;;;;;4.25;3.76;;;;;;;19.88;36.65;101339.01;;;;-51
2020/04/10 06:05:39;;;;;;;4.36;3.96;;;;;;;19.89;36.63;101344.93;;;;-52
2020/04/10 06:08:39;;;;;;;4.33;3.97;;;;;;;19.91;36.61;101345.17;;;;-52
2020/04/10 06:11:39;;;;;;;4.73;3.93;;;;;;;19.92;36.62;101345.22;;;;-53
2020/04/10 06:14:39;;;;;;;4.31;3.91;;;;;;;19.94;36.60;101342.88;;;;-52
2020/04/10 06:17:39;;;;;;;4.57;4.17;;;;;;;19.95;36.60;101343.99;;;;-52
2020/04/10 06:20:39;;;;;;;4.21;3.89;;;;;;;19.99;36.55;101346.39;;;;-52
2020/04/10 06:23:39;;;;;;;4.29;3.93;;;;;;;19.99;36.58;101355.22;;;;-52
2020/04/10 06:26:39;;;;;;;4.55;4.15;;;;;;;20.01;36.57;101353.14;;;;-52
2020/04/10 06:29:39;;;;;;;4.24;3.86;;;;;;;20.01;36.57;101350.47;;;;-51
2020/04/10 06:32:39;;;;;;;4.13;3.83;;;;;;;20.04;36.55;101350.47;;;;-52
2020/04/10 06:35:39;;;;;;;4.79;4.03;;;;;;;20.04;36.52;101349.13;;;;-52
2020/04/10 06:38:39;;;;;;;4.16;3.81;;;;;;;20.06;36.53;101350.74;;;;-52
2020/04/10 06:41:39;;;;;;;4.09;3.79;;;;;;;20.07;36.48;101352.54;;;;-52
2020/04/10 06:44:39;;;;;;;4.23;3.93;;;;;;;20.08;36.51;101354.89;;;;-52
2020/04/10 06:47:39;;;;;;;4.10;3.80;;;;;;;20.09;36.47;101355.00;;;;-52
2020/04/10 06:50:39;;;;;;;4.55;4.15;;;;;;;20.10;36.47;101363.72;;;;-52
2020/04/10 06:53:39;;;;;;;4.50;4.01;;;;;;;20.10;36.45;101362.22;;;;-52
2020/04/10 06:56:39;;;;;;;4.11;3.81;;;;;;;20.11;36.41;101364.27;;;;-52
2020/04/10 06:59:39;;;;;;;4.30;3.87;;;;;;;20.12;36.43;101363.56;;;;-52
2020/04/10 07:02:39;;;;;;;4.21;3.82;;;;;;;20.13;36.39;101362.77;;;;-52
2020/04/10 07:05:39;;;;;;;4.19;3.80;;;;;;;20.13;36.42;101358.02;;;;-52
2020/04/10 07:08:39;;;;;;;4.09;3.79;;;;;;;20.15;36.35;101358.13;;;;-52
2020/04/10 07:11:39;;;;;;;4.38;3.98;;;;;;;20.15;36.37;101356.02;;;;-52
2020/04/10 07:14:39;;;;;;;4.28;3.88;;;;;;;20.16;36.35;101356.56;;;;-52
2020/04/10 07:17:39;;;;;;;4.20;3.85;;;;;;;20.17;36.36;101352.59;;;;-52
2020/04/10 07:20:39;;;;;;;4.32;3.94;;;;;;;20.17;36.33;101355.95;;;;-52
2020/04/10 07:23:39;;;;;;;4.23;3.89;;;;;;;20.17;36.30;101355.39;;;;-52
2020/04/10 07:26:39;;;;;;;3.93;3.63;;;;;;;20.18;36.29;101354.34;;;;-52
2020/04/10 07:29:39;;;;;;;4.33;3.94;;;;;;;20.19;36.28;101349.97;;;;-52
2020/04/10 07:32:39;;;;;;;5.15;3.79;;;;;;;20.20;36.27;101349.58;;;;-51
2020/04/10 07:35:39;;;;;;;4.35;3.95;;;;;;;20.20;36.25;101352.77;;;;-52
2020/04/10 07:38:39;;;;;;;4.11;3.73;;;;;;;20.21;36.24;101358.26;;;;-52
2020/04/10 07:41:39;;;;;;;3.98;3.65;;;;;;;20.21;36.24;101358.64;;;;-52
2020/04/10 07:44:39;;;;;;;4.01;3.71;;;;;;;20.23;36.26;101360.48;;;;-52
2020/04/10 07:47:39;;;;;;;4.05;3.65;;;;;;;20.23;36.20;101359.48;;;;-52
2020/04/10 07:50:39;;;;;;;3.92;3.59;;;;;;;20.23;36.23;101356.63;;;;-51
2020/04/10 07:53:39;;;;;;;4.23;3.82;;;;;;;20.23;36.26;101358.08;;;;-52
2020/04/10 07:56:39;;;;;;;4.09;3.77;;;;;;;20.23;36.26;101364.79;;;;-51
2020/04/10 07:59:39;;;;;;;5.45;4.05;;;;;;;20.23;36.23;101363.84;;;;-52
2020/04/10 08:02:39;;;;;;;4.21;3.81;;;;;;;20.23;36.24;101359.92;;;;-52
2020/04/10 08:05:39;;;;;;;4.05;3.75;;;;;;;20.22;36.19;101361.50;;;;-52
2020/04/10 08:08:39;;;;;;;4.09;3.69;;;;;;;20.22;36.16;101362.94;;;;-52
2020/04/10 08:11:39;;;;;;;4.08;3.78;;;;;;;20.21;36.21;101365.58;;;;-52
2020/04/10 08:14:39;;;;;;;13.24;4.56;;;;;;;20.19;36.67;101363.05;;;;-54
2020/04/10 08:17:39;;;;;;;7.46;6.45;;;;;;;20.11;37.49;101362.27;;;;-53
2020/04/10 08:20:39;;;;;;;8.99;7.18;;;;;;;20.03;38.18;101362.49;;;;-54
2020/04/10 08:23:39;;;;;;;10.79;7.86;;;;;;;20.00;38.29;101369.03;;;;-54
2020/04/10 08:26:39;;;;;;;8.55;7.15;;;;;;;19.99;38.37;101365.11;;;;-54
2020/04/10 08:29:39;;;;;;;9.37;7.84;;;;;;;19.96;38.68;101364.50;;;;-53
2020/04/10 08:32:39;;;;;;;9.91;7.42;;;;;;;19.96;38.60;101363.50;;;;-58
2020/04/10 08:35:39;;;;;;;10.43;8.03;;;;;;;19.95;38.80;101359.54;;;;-58
2020/04/10 08:38:39;;;;;;;11.02;7.93;;;;;;;19.93;39.09;101359.07;;;;-56
2020/04/10 08:43:39;;;;;;;11.12;7.77;;;;;;;19.92;39.25;101360.70;;;;-56
2020/04/10 08:46:39;;;;;;;9.75;8.01;;;;;;;19.90;39.25;101355.11;;;;-57
2020/04/10 08:49:39;;;;;;;10.22;8.31;;;;;;;19.89;39.36;101357.55;;;;-53
2020/04/10 08:52:39;;;;;;;9.22;7.95;;;;;;;19.89;39.30;101353.48;;;;-54
2020/04/10 08:55:39;;;;;;;9.41;8.04;;;;;;;19.90;39.21;101351.74;;;;-55
2020/04/10 08:58:39;;;;;;;9.66;7.33;;;;;;;19.90;39.37;101347.55;;;;-53
2020/04/10 09:01:39;;;;;;;11.87;7.88;;;;;;;19.90;39.47;101346.50;;;;-53
2020/04/10 09:04:39;;;;;;;11.31;8.02;;;;;;;19.91;39.38;101343.92;;;;-53
2020/04/10 09:07:39;;;;;;;9.18;7.85;;;;;;;19.91;39.49;101343.75;;;;-53
2020/04/10 09:10:39;;;;;;;9.71;7.87;;;;;;;19.92;39.46;101350.31;;;;-54
2020/04/10 09:13:39;;;;;;;9.91;7.81;;;;;;;19.91;39.54;101343.43;;;;-58
2020/04/10 09:16:39;;;;;;;10.53;7.84;;;;;;;19.92;39.55;101346.80;;;;-57
2020/04/10 09:19:39;;;;;;;9.48;6.72;;;;;;;19.96;39.12;101345.12;;;;-58
2020/04/10 09:22:39;;;;;;;12.45;6.25;;;;;;;19.98;39.13;101344.39;;;;-54
2020/04/10 09:25:39;;;;;;;8.41;5.80;;;;;;;19.98;38.82;101339.86;;;;-55
2020/04/10 09:28:39;;;;;;;7.37;5.53;;;;;;;19.99;38.57;101338.28;;;;-53
2020/04/10 09:31:39;;;;;;;8.81;5.34;;;;;;;20.00;38.45;101333.20;;;;-54
2020/04/10 09:34:39;;;;;;;6.43;5.08;;;;;;;20.00;38.30;101333.97;;;;-53
2020/04/10 09:37:39;;;;;;;7.24;4.67;;;;;;;20.00;38.24;101328.37;;;;-56
2020/04/10 09:40:39;;;;;;;8.09;4.98;;;;;;;20.01;38.15;101328.60;;;;-61
2020/04/10 09:43:39;;;;;;;5.34;4.76;;;;;;;20.01;38.18;101325.42;;;;-55
2020/04/10 09:46:39;;;;;;;5.87;5.06;;;;;;;20.01;38.04;101321.30;;;;-54
2020/04/10 09:49:39;;;;;;;6.09;4.74;;;;;;;20.02;38.12;101323.80;;;;-56
2020/04/10 09:52:39;;;;;;;5.54;4.56;;;;;;;20.02;38.02;101319.94;;;;-55
2020/04/10 09:55:39;;;;;;;8.13;4.75;;;;;;;20.02;38.20;101316.41;;;;-57
2020/04/10 09:58:39;;;;;;;5.93;4.48;;;;;;;20.03;37.96;101314.86;;;;-54
2020/04/10 10:01:39;;;;;;;11.86;4.73;;;;;;;20.06;38.24;101307.55;;;;-59
2020/04/10 10:04:39;;;;;;;6.75;4.78;;;;;;;20.05;37.99;101307.98;;;;-56
2020/04/10 10:07:39;;;;;;;6.81;4.51;;;;;;;20.05;38.17;101307.59;;;;-62
2020/04/10 10:10:39;;;;;;;5.89;4.21;;;;;;;20.07;38.20;101306.19;;;;-60
2020/04/10 10:13:39;;;;;;;8.10;4.63;;;;;;;20.06;38.14;101301.11;;;;-57
2020/04/10 10:16:39;;;;;;;5.71;4.61;;;;;;;20.06;38.13;101293.50;;;;-54
2020/04/10 10:19:39;;;;;;;5.77;4.31;;;;;;;20.08;38.15;101295.53;;;;-59
2020/04/10 10:22:39;;;;;;;7.13;4.41;;;;;;;20.06;37.92;101289.55;;;;-58
2020/04/10 10:25:39;;;;;;;4.89;4.27;;;;;;;20.06;37.87;101289.27;;;;-58
2020/04/10 10:28:39;;;;;;;4.87;4.37;;;;;;;20.05;37.80;101290.09;;;;-58
2020/04/10 10:31:39;;;;;;;6.81;4.45;;;;;;;20.04;37.77;101287.75;;;;-58
2020/04/10 10:34:39;;;;;;;5.05;4.09;;;;;;;20.03;37.71;101290.38;;;;-58
2020/04/10 10:37:39;;;;;;;4.57;4.11;;;;;;;20.03;37.63;101289.37;;;;-58
2020/04/10 10:40:39;;;;;;;5.83;4.00;;;;;;;20.01;37.61;101285.80;;;;-58
2020/04/10 10:43:39;;;;;;;5.31;4.01;;;;;;;20.00;37.53;101283.11;;;;-58
2020/04/10 10:46:39;;;;;;;7.42;3.94;;;;;;;20.00;37.53;101279.03;;;;-58
2020/04/10 10:49:39;;;;;;;5.89;4.05;;;;;;;19.99;37.62;101279.42;;;;-57
2020/04/10 10:52:39;;;;;;;5.43;4.06;;;;;;;19.98;37.60;101272.20;;;;-56
2020/04/10 10:55:39;;;;;;;6.41;4.18;;;;;;;19.99;37.52;101272.22;;;;-60
2020/04/10 10:58:39;;;;;;;4.77;4.09;;;;;;;19.99;37.52;101267.70;;;;-52
2020/04/10 11:01:39;;;;;;;6.77;6.15;;;;;;;20.00;37.60;101264.62;;;;-51
2020/04/10 11:04:39;;;;;;;5.93;5.39;;;;;;;19.99;37.60;101259.75;;;;-54
2020/04/10 11:07:39;;;;;;;8.54;7.84;;;;;;;20.00;37.60;101258.58;;;;-53
2020/04/10 11:10:39;;;;;;;9.39;7.33;;;;;;;20.00;37.67;101258.75;;;;-62
2020/04/10 11:13:39;;;;;;;10.57;9.32;;;;;;;19.99;37.54;101257.23;;;;-61
2020/04/10 11:16:39;;;;;;;4.94;3.85;;;;;;;19.99;37.53;101251.31;;;;-62
2020/04/10 11:19:39;;;;;;;19.91;18.37;;;;;;;19.97;37.49;101246.81;;;;-61
2020/04/10 11:22:39;;;;;;;24.45;22.54;;;;;;;19.96;37.42;101247.77;;;;-61
2020/04/10 11:25:39;;;;;;;4.24;3.65;;;;;;;19.94;37.41;101238.08;;;;-61
2020/04/10 11:28:39;;;;;;;4.06;3.76;;;;;;;19.94;37.40;101235.42;;;;-62
2020/04/10 11:31:39;;;;;;;4.86;4.04;;;;;;;19.93;37.38;101229.09;;;;-61
2020/04/10 11:34:39;;;;;;;5.03;3.95;;;;;;;19.92;37.32;101221.73;;;;-62
2020/04/10 11:37:39;;;;;;;4.81;3.55;;;;;;;19.91;37.30;101217.75;;;;-61
2020/04/10 11:40:39;;;;;;;4.20;3.80;;;;;;;19.90;37.29;101216.53;;;;-62
2020/04/10 11:43:39;;;;;;;3.95;3.65;;;;;;;19.89;37.29;101212.22;;;;-63
2020/04/10 11:46:39;;;;;;;5.77;3.77;;;;;;;19.89;37.29;101213.79;;;;-63
2020/04/10 11:49:39;;;;;;;3.83;3.47;;;;;;;19.88;37.18;101206.06;;;;-61
2020/04/10 11:52:39;;;;;;;8.41;7.64;;;;;;;19.88;37.21;101205.11;;;;-61
2020/04/10 11:55:39;;;;;;;5.37;3.87;;;;;;;19.87;37.20;101200.60;;;;-61
2020/04/10 11:58:39;;;;;;;4.39;3.61;;;;;;;19.86;37.14;101202.84;;;;-62
2020/04/10 12:01:39;;;;;;;4.48;3.91;;;;;;;19.85;37.08;101196.02;;;;-60
2020/04/10 12:04:39;;;;;;;4.23;3.83;;;;;;;19.84;37.12;101196.13;;;;-61
2020/04/10 12:07:39;;;;;;;4.49;3.81;;;;;;;19.83;37.16;101194.55;;;;-60
2020/04/10 12:10:39;;;;;;;4.01;3.61;;;;;;;19.82;37.10;101195.58;;;;-62
2020/04/10 12:13:39;;;;;;;3.98;3.57;;;;;;;19.82;37.08;101192.00;;;;-62
2020/04/10 12:16:39;;;;;;;9.47;3.81;;;;;;;19.83;37.56;101189.93;;;;-54
2020/04/10 12:19:39;;;;;;;8.47;3.61;;;;;;;19.84;37.45;101191.15;;;;-57
2020/04/10 12:22:39;;;;;;;7.64;3.74;;;;;;;19.83;37.53;101188.53;;;;-55
2020/04/10 12:25:39;;;;;;;6.77;3.67;;;;;;;19.84;37.53;101184.45;;;;-57
2020/04/10 12:28:39;;;;;;;3.94;3.37;;;;;;;19.84;37.57;101178.74;;;;-56
2020/04/10 12:31:39;;;;;;;5.88;3.51;;;;;;;19.84;37.59;101177.41;;;;-56
2020/04/10 12:34:39;;;;;;;4.37;3.40;;;;;;;19.84;37.59;101169.86;;;;-56
2020/04/10 12:37:39;;;;;;;5.51;3.53;;;;;;;19.84;37.67;101160.82;;;;-52
2020/04/10 12:40:39;;;;;;;4.88;3.67;;;;;;;19.86;37.91;101159.31;;;;-52
2020/04/10 12:43:39;;;;;;;10.19;4.12;;;;;;;19.87;37.88;101154.67;;;;-54
2020/04/10 12:46:39;;;;;;;7.87;3.93;;;;;;;19.87;37.68;101147.73;;;;-54
2020/04/10 12:49:39;;;;;;;4.91;3.57;;;;;;;19.85;37.62;101145.89;;;;-54
2020/04/10 12:52:39;;;;;;;5.91;4.13;;;;;;;19.85;37.69;101141.70;;;;-54
2020/04/10 12:55:39;;;;;;;8.64;3.97;;;;;;;19.84;37.60;101143.61;;;;-54
2020/04/10 12:58:39;;;;;;;11.60;4.04;;;;;;;19.84;37.56;101145.29;;;;-54
2020/04/10 13:01:39;;;;;;;7.85;4.00;;;;;;;19.82;37.53;101132.03;;;;-54
2020/04/10 13:04:39;;;;;;;8.59;4.15;;;;;;;19.81;37.47;101128.91;;;;-54
2020/04/10 13:07:39;;;;;;;9.24;4.01;;;;;;;19.81;37.48;101129.98;;;;-54
2020/04/10 13:10:39;;;;;;;8.62;3.91;;;;;;;19.80;37.43;101127.41;;;;-54
2020/04/10 13:14:39;;;;;;;5.82;3.97;;;;;;;19.79;37.39;101124.62;;;;-54
2020/04/10 13:17:39;;;;;;;6.11;3.89;;;;;;;19.79;37.38;101122.09;;;;-54
2020/04/10 13:20:40;;;;;;;9.82;3.93;;;;;;;19.77;37.33;101114.84;;;;-54
2020/04/10 13:23:39;;;;;;;6.73;3.82;;;;;;;19.76;37.29;101109.86;;;;-54
2020/04/10 13:26:39;;;;;;;4.95;3.76;;;;;;;19.76;37.28;101112.44;;;;-54
2020/04/10 13:29:39;;;;;;;4.23;3.51;;;;;;;19.75;37.27;101107.98;;;;-54
2020/04/10 13:32:39;;;;;;;9.51;3.99;;;;;;;19.74;37.27;101103.22;;;;-54
2020/04/10 13:35:39;;;;;;;6.86;4.02;;;;;;;19.74;37.23;101101.05;;;;-53
2020/04/10 13:38:39;;;;;;;4.81;3.70;;;;;;;19.73;37.21;101098.70;;;;-53
2020/04/10 13:41:39;;;;;;;7.95;6.25;;;;;;;19.72;37.23;101094.34;;;;-54
2020/04/10 13:44:39;;;;;;;17.43;15.81;;;;;;;19.73;37.29;101096.42;;;;-54
2020/04/10 13:47:39;;;;;;;7.18;6.55;;;;;;;19.72;37.33;101096.47;;;;-57
2020/04/10 13:50:39;;;;;;;8.11;4.17;;;;;;;19.73;37.33;101090.66;;;;-56
2020/04/10 13:53:39;;;;;;;6.82;4.19;;;;;;;19.73;37.43;101086.13;;;;-55
2020/04/10 13:56:39;;;;;;;5.47;4.09;;;;;;;19.72;37.28;101086.36;;;;-56
2020/04/10 13:59:39;;;;;;;7.00;3.91;;;;;;;19.71;37.33;101080.04;;;;-56
2020/04/10 14:02:39;;;;;;;8.61;3.68;;;;;;;19.71;37.29;101076.58;;;;-55
2020/04/10 14:05:40;;;;;;;5.95;3.91;;;;;;;19.71;37.30;101072.02;;;;-56
2020/04/10 14:08:39;;;;;;;6.04;3.93;;;;;;;19.70;37.27;101064.59;;;;-56
2020/04/10 14:11:39;;;;;;;6.59;3.80;;;;;;;19.70;37.23;101063.02;;;;-56
2020/04/10 14:14:39;;;;;;;5.91;3.73;;;;;;;19.69;37.46;101059.11;;;;-57
2020/04/10 14:17:39;;;;;;;7.14;3.69;;;;;;;19.71;37.74;101062.50;;;;-56
2020/04/10 14:20:39;;;;;;;5.62;4.05;;;;;;;19.74;37.86;101059.88;;;;-53
2020/04/10 14:23:39;;;;;;;5.65;3.81;;;;;;;19.73;37.88;101053.13;;;;-55
2020/04/10 14:26:39;;;;;;;9.41;3.93;;;;;;;19.74;37.94;101059.82;;;;-53
2020/04/10 14:29:39;;;;;;;8.11;3.73;;;;;;;19.74;38.18;101054.96;;;;-58
2020/04/10 14:32:39;;;;;;;7.35;3.99;;;;;;;19.74;38.13;101049.77;;;;-60
2020/04/10 14:35:39;;;;;;;5.73;3.66;;;;;;;19.74;38.02;101046.52;;;;-62
2020/04/10 14:38:39;;;;;;;7.92;3.87;;;;;;;19.74;38.02;101041.66;;;;-55
2020/04/10 14:41:39;;;;;;;4.70;3.93;;;;;;;19.75;38.04;101042.83;;;;-56
2020/04/10 14:44:39;;;;;;;5.24;3.83;;;;;;;19.75;38.01;101044.13;;;;-54
2020/04/10 14:47:39;;;;;;;7.53;3.79;;;;;;;19.76;38.02;101039.81;;;;-55
2020/04/10 14:50:39;;;;;;;9.15;3.69;;;;;;;19.76;38.09;101040.89;;;;-53
2020/04/10 14:53:39;;;;;;;5.89;3.71;;;;;;;19.76;38.10;101040.89;;;;-61
2020/04/10 14:56:39;;;;;;;12.15;3.84;;;;;;;19.76;38.13;101039.98;;;;-58
2020/04/10 14:59:39;;;;;;;4.82;3.66;;;;;;;19.77;38.07;101037.02;;;;-56
2020/04/10 15:02:39;;;;;;;5.29;3.59;;;;;;;19.77;38.13;101033.39;;;;-57
2020/04/10 15:05:39;;;;;;;4.85;3.83;;;;;;;19.76;38.04;101025.91;;;;-58
2020/04/10 15:08:39;;;;;;;4.77;3.84;;;;;;;19.78;38.04;101027.84;;;;-56
2020/04/10 15:11:39;;;;;;;5.29;3.51;;;;;;;19.79;38.02;101026.56;;;;-52
2020/04/10 15:15:39;;;;;;;5.15;3.62;;;;;;;19.79;37.99;101022.20;;;;-56
2020/04/10 15:18:39;;;;;;;7.57;3.41;;;;;;;19.79;37.97;101021.77;;;;-52
2020/04/10 15:21:39;;;;;;;6.59;3.43;;;;;;;19.80;37.95;101018.45;;;;-56
2020/04/10 15:24:39;;;;;;;5.71;3.57;;;;;;;19.80;38.04;101018.73;;;;-57
2020/04/10 15:27:39;;;;;;;5.15;3.57;;;;;;;19.79;38.01;101017.00;;;;-55
2020/04/10 15:30:39;;;;;;;4.67;3.64;;;;;;;19.79;38.00;101016.67;;;;-54
2020/04/10 15:33:39;;;;;;;4.84;3.45;;;;;;;19.79;37.93;101016.01;;;;-53
2020/04/10 15:38:39;;;;;;;4.83;3.18;;;;;;;19.80;37.95;101015.88;;;;-54
2020/04/10 15:41:39;;;;;;;4.79;3.59;;;;;;;19.80;37.91;101013.03;;;;-55
2020/04/10 15:44:39;;;;;;;4.63;3.45;;;;;;;19.81;37.99;101017.44;;;;-50
2020/04/10 15:47:39;;;;;;;5.55;3.52;;;;;;;19.81;37.99;101010.23;;;;-54
2020/04/10 15:50:39;;;;;;;4.04;3.43;;;;;;;19.82;37.93;101011.46;;;;-56
2020/04/10 15:53:39;;;;;;;4.34;3.51;;;;;;;19.82;37.96;101014.03;;;;-57
2020/04/10 15:56:39;;;;;;;5.70;3.51;;;;;;;19.81;37.92;101012.59;;;;-60
2020/04/10 15:59:39;;;;;;;5.39;3.34;;;;;;;19.81;37.88;101012.76;;;;-61
2020/04/10 16:02:39;;;;;;;6.36;3.35;;;;;;;19.81;37.84;101007.95;;;;-60
2020/04/10 16:05:39;;;;;;;4.29;3.28;;;;;;;19.81;37.92;101008.12;;;;-57
2020/04/10 16:08:39;;;;;;;5.21;3.51;;;;;;;19.82;37.82;101010.85;;;;-52
2020/04/10 16:11:39;;;;;;;5.11;3.48;;;;;;;19.82;37.82;101006.16;;;;-55
2020/04/10 16:14:39;;;;;;;3.79;3.31;;;;;;;19.82;37.88;101011.03;;;;-60
2020/04/10 16:17:39;;;;;;;7.30;3.23;;;;;;;19.82;37.88;101013.14;;;;-53
2020/04/10 16:20:39;;;;;;;3.91;3.10;;;;;;;19.82;37.85;101013.98;;;;-51
2020/04/10 16:23:39;;;;;;;4.85;3.15;;;;;;;19.82;37.91;101011.69;;;;-58
2020/04/10 16:26:39;;;;;;;6.28;3.38;;;;;;;19.82;37.91;101011.19;;;;-51
2020/04/10 16:29:39;;;;;;;4.35;3.21;;;;;;;19.82;37.91;101016.99;;;;-51
2020/04/10 16:32:39;;;;;;;5.01;3.23;;;;;;;19.81;37.94;101016.28;;;;-51
2020/04/10 16:35:40;;;;;;;4.49;3.19;;;;;;;19.82;37.94;101018.50;;;;-58
2020/04/10 16:38:39;;;;;;;3.35;2.91;;;;;;;19.81;37.91;101019.97;;;;-52
2020/04/10 16:41:41;;;;;;;4.81;3.18;;;;;;;19.82;37.79;101022.42;;;;-62
2020/04/10 16:44:39;;;;;;;5.24;2.94;;;;;;;19.81;37.86;101018.69;;;;-53
2020/04/10 16:47:39;;;;;;;3.76;3.09;;;;;;;19.81;37.81;101020.86;;;;-60
2020/04/10 16:50:39;;;;;;;4.00;3.11;;;;;;;19.81;37.76;101021.20;;;;-58
2020/04/10 16:53:39;;;;;;;5.34;3.20;;;;;;;19.82;37.96;101024.20;;;;-54
2020/04/10 16:56:39;;;;;;;4.14;2.93;;;;;;;19.83;37.78;101025.82;;;;-53
2020/04/10 16:59:39;;;;;;;3.19;2.85;;;;;;;19.83;37.75;101022.74;;;;-54
2020/04/10 17:02:39;;;;;;;3.47;2.75;;;;;;;19.83;37.70;101021.80;;;;-54